createdAt,value
2022-12-07T00:01:22.650Z,36.60
2022-12-07T00:03:52.718Z,39.00
2022-12-07T00:06:20.000Z,35.70
2022-12-07T00:08:47.633Z,38.40
2022-12-07T00:11:20.754Z,38.30
2022-12-07T00:13:48.649Z,36.10
2022-12-07T00:16:18.969Z,36.60
2022-12-07T00:18:46.468Z,34.60
2022-12-07T00:21:33.410Z,37.10
2022-12-07T00:24:01.266Z,38.20
2022-12-07T00:26:31.044Z,39.10
2022-12-07T00:29:00.471Z,39.50
2022-12-07T00:31:30.662Z,39.50
2022-12-07T00:33:58.906Z,42.70
2022-12-07T00:36:27.475Z,41.10
2022-12-07T00:39:00.256Z,38.80
2022-12-07T00:41:28.394Z,39.30
2022-12-07T00:43:55.521Z,41.60
2022-12-07T00:46:23.544Z,46.70
2022-12-07T00:48:51.618Z,42.70
2022-12-07T00:51:21.081Z,40.90
2022-12-07T00:53:47.736Z,38.90
2022-12-07T00:56:21.263Z,36.80
2022-12-07T00:58:53.544Z,36.90
2022-12-07T01:01:20.623Z,33.20
2022-12-07T01:03:47.198Z,34.00
2022-12-07T01:06:18.138Z,30.40
2022-12-07T01:08:45.709Z,29.80
2022-12-07T01:11:18.914Z,28.60
2022-12-07T01:13:45.884Z,29.10
2022-12-07T01:16:15.239Z,24.10
2022-12-07T01:18:42.014Z,27.90
2022-12-07T01:21:12.545Z,25.40
2022-12-07T01:23:39.699Z,22.90
2022-12-07T01:26:08.892Z,25.10
2022-12-07T01:28:35.551Z,24.10
2022-12-07T01:31:05.122Z,23.30
2022-12-07T01:33:34.742Z,24.90
2022-12-07T01:36:13.807Z,26.50
2022-12-07T01:38:40.951Z,27.90
2022-12-07T01:41:08.013Z,24.70
2022-12-07T01:43:35.520Z,22.10
2022-12-07T01:46:03.747Z,22.80
2022-12-07T01:48:37.363Z,21.90
2022-12-07T01:51:09.850Z,19.30
2022-12-07T01:53:39.217Z,18.10
2022-12-07T01:56:08.348Z,18.60
2022-12-07T01:58:35.272Z,16.10
2022-12-07T02:01:01.974Z,16.10
2022-12-07T02:03:42.304Z,15.60
2022-12-07T02:06:11.136Z,13.50
2022-12-07T02:08:38.061Z,14.10
2022-12-07T02:11:06.323Z,14.40
2022-12-07T02:13:37.218Z,13.90
2022-12-07T02:16:21.449Z,12.70
2022-12-07T02:18:58.147Z,13.60
2022-12-07T02:21:41.099Z,13.20
2022-12-07T02:24:26.425Z,14.50
2022-12-07T02:27:21.524Z,14.50
2022-12-07T02:29:55.590Z,15.60
2022-12-07T02:33:04.171Z,15.50
2022-12-07T02:35:38.488Z,16.80
2022-12-07T02:38:24.263Z,16.50
2022-12-07T02:41:17.182Z,17.80
2022-12-07T02:43:48.596Z,16.50
2022-12-07T02:46:22.743Z,17.00
2022-12-07T02:48:51.049Z,16.60
2022-12-07T02:51:19.667Z,18.40
2022-12-07T02:53:46.144Z,16.20
2022-12-07T02:56:31.997Z,18.20
2022-12-07T02:59:26.107Z,16.00
2022-12-07T03:02:10.956Z,16.40
2022-12-07T03:04:40.177Z,17.70
2022-12-07T03:07:31.917Z,18.60
2022-12-07T03:12:43.817Z,18.80
2022-12-07T03:15:19.814Z,17.90
2022-12-07T03:17:48.457Z,18.60
2022-12-07T03:20:20.146Z,17.90
2022-12-07T03:22:48.448Z,17.70
2022-12-07T03:25:17.529Z,18.80
2022-12-07T03:27:58.100Z,17.70
2022-12-07T03:30:32.023Z,16.20
2022-12-07T03:33:08.032Z,16.20
2022-12-07T03:35:41.692Z,18.40
2022-12-07T03:38:28.600Z,17.60
2022-12-07T03:41:13.325Z,17.10
2022-12-07T03:43:42.572Z,16.80
2022-12-07T03:46:52.086Z,16.90
2022-12-07T03:49:29.931Z,18.80
2022-12-07T03:52:18.552Z,17.60
2022-12-07T03:55:09.808Z,16.20
2022-12-07T03:57:38.290Z,15.80
2022-12-07T04:00:07.071Z,16.20
2022-12-07T04:02:34.601Z,17.60
2022-12-07T04:05:01.294Z,20.40
2022-12-07T04:07:28.043Z,21.50
2022-12-07T04:09:54.595Z,22.70
2022-12-07T04:12:21.815Z,26.10
2022-12-07T04:14:48.380Z,25.00
2022-12-07T04:17:14.927Z,23.10
2022-12-07T04:19:41.569Z,23.40
2022-12-07T04:22:08.424Z,23.60
2022-12-07T04:24:35.373Z,21.10
2022-12-07T04:27:02.330Z,19.40
2022-12-07T04:29:29.075Z,19.30
2022-12-07T04:31:55.964Z,19.50
2022-12-07T04:34:22.980Z,19.90
2022-12-07T04:36:49.819Z,18.80
2022-12-07T04:39:26.513Z,20.10
2022-12-07T04:41:53.549Z,19.10
2022-12-07T04:44:21.847Z,20.20
2022-12-07T04:46:50.203Z,19.10
2022-12-07T04:49:17.493Z,17.80
2022-12-07T04:51:45.149Z,19.00
2022-12-07T04:54:12.772Z,23.40
2022-12-07T04:56:40.036Z,20.70
2022-12-07T04:59:06.923Z,27.00
2022-12-07T05:01:34.585Z,21.30
2022-12-07T05:04:01.205Z,21.90
2022-12-07T05:06:27.686Z,21.10
2022-12-07T05:08:54.204Z,19.60
2022-12-07T05:11:20.648Z,21.20
2022-12-07T05:13:47.183Z,18.60
2022-12-07T05:16:13.746Z,17.90
2022-12-07T05:18:40.367Z,19.00
2022-12-07T05:21:06.766Z,19.30
2022-12-07T05:23:33.343Z,18.90
2022-12-07T05:25:59.887Z,19.40
2022-12-07T05:28:26.321Z,19.50
2022-12-07T05:30:58.259Z,20.20
2022-12-07T05:33:26.672Z,20.90
2022-12-07T05:35:53.215Z,21.30
2022-12-07T05:38:19.954Z,23.00
2022-12-07T05:40:46.394Z,22.50
2022-12-07T05:43:13.076Z,21.40
2022-12-07T05:45:39.855Z,20.90
2022-12-07T05:48:06.848Z,20.70
2022-12-07T05:50:33.384Z,20.50
2022-12-07T05:53:00.230Z,17.20
2022-12-07T05:55:26.870Z,17.60
2022-12-07T05:57:53.626Z,18.80
2022-12-07T06:00:20.479Z,23.90
2022-12-07T06:02:47.124Z,30.40
2022-12-07T06:05:14.067Z,25.00
2022-12-07T06:07:40.599Z,55.20
2022-12-07T06:10:07.961Z,32.60
2022-12-07T06:12:34.605Z,22.40
2022-12-07T06:15:01.210Z,21.40
2022-12-07T06:17:27.718Z,23.10
2022-12-07T06:19:54.186Z,24.60
2022-12-07T06:22:20.667Z,26.40
2022-12-07T06:24:47.312Z,27.20
2022-12-07T06:27:13.948Z,25.90
2022-12-07T06:29:40.402Z,22.90
2022-12-07T06:32:07.317Z,23.40
2022-12-07T06:34:33.844Z,23.50
2022-12-07T06:37:00.535Z,23.60
2022-12-07T06:39:29.209Z,24.80
2022-12-07T06:41:56.324Z,25.70
2022-12-07T06:44:23.721Z,26.30
2022-12-07T06:46:51.126Z,35.80
2022-12-07T06:49:18.151Z,40.20
2022-12-07T06:51:45.084Z,47.20
2022-12-07T06:54:13.948Z,46.20
2022-12-07T06:56:41.132Z,38.50
2022-12-07T06:59:08.495Z,47.40
2022-12-07T07:01:36.312Z,35.50
2022-12-07T07:04:03.464Z,33.70
2022-12-07T07:06:29.944Z,31.70
2022-12-07T07:08:56.680Z,30.20
2022-12-07T07:11:23.327Z,30.90
2022-12-07T07:13:49.737Z,26.20
2022-12-07T07:16:16.316Z,33.00
2022-12-07T07:18:42.947Z,34.70
2022-12-07T07:21:09.482Z,38.70
2022-12-07T07:23:36.227Z,39.60
2022-12-07T07:26:02.877Z,37.50
2022-12-07T07:28:29.514Z,35.70
2022-12-07T07:30:56.096Z,37.40
2022-12-07T07:33:22.735Z,37.90
2022-12-07T07:35:49.229Z,43.50
2022-12-07T07:38:15.772Z,55.10
2022-12-07T07:40:42.334Z,65.20
2022-12-07T07:43:08.818Z,58.70
2022-12-07T07:45:35.285Z,51.00
2022-12-07T07:48:01.930Z,56.40
2022-12-07T07:50:28.569Z,58.00
2022-12-07T07:52:55.060Z,54.70
2022-12-07T07:55:21.547Z,120.40
2022-12-07T07:57:54.156Z,75.80
2022-12-07T08:00:21.764Z,73.30
2022-12-07T08:02:48.299Z,54.40
2022-12-07T08:05:14.858Z,47.10
2022-12-07T08:07:41.890Z,45.50
2022-12-07T08:10:12.778Z,37.90
2022-12-07T08:12:40.991Z,37.10
2022-12-07T08:15:08.313Z,34.00
2022-12-07T08:17:34.858Z,35.30
2022-12-07T08:20:01.636Z,36.80
2022-12-07T08:22:28.447Z,48.10
2022-12-07T08:24:54.937Z,37.80
2022-12-07T08:27:21.449Z,42.10
2022-12-07T08:29:47.905Z,40.90
2022-12-07T08:32:14.392Z,50.70
2022-12-07T08:34:41.241Z,36.80
2022-12-07T08:37:07.761Z,41.70
2022-12-07T08:39:34.169Z,39.90
2022-12-07T08:42:00.646Z,31.50
2022-12-07T08:44:27.302Z,46.80
2022-12-07T08:46:59.973Z,44.60
2022-12-07T08:49:41.879Z,50.70
2022-12-07T08:52:08.645Z,56.30
2022-12-07T08:54:37.723Z,51.90
2022-12-07T08:57:05.392Z,54.70
2022-12-07T08:59:33.663Z,48.90
2022-12-07T09:02:00.219Z,56.30
2022-12-07T09:04:26.885Z,42.70
2022-12-07T09:06:55.509Z,39.90
2022-12-07T09:09:22.090Z,55.90
2022-12-07T09:11:48.939Z,40.20
2022-12-07T09:14:15.404Z,37.50
2022-12-07T09:16:41.812Z,35.50
2022-12-07T09:19:09.107Z,39.90
2022-12-07T09:21:35.535Z,47.90
2022-12-07T09:24:02.147Z,45.40
2022-12-07T09:26:31.645Z,33.70
2022-12-07T09:28:58.278Z,27.30
2022-12-07T09:31:26.077Z,31.00
2022-12-07T09:34:01.780Z,31.20
2022-12-07T09:36:29.794Z,31.70
2022-12-07T09:39:00.749Z,35.10
2022-12-07T09:41:30.288Z,44.60
2022-12-07T09:44:08.773Z,24.10
2022-12-07T09:46:41.302Z,23.20
2022-12-07T09:49:15.569Z,20.80
2022-12-07T09:51:42.216Z,19.60
2022-12-07T09:54:12.681Z,20.40
2022-12-07T09:56:39.394Z,21.50
2022-12-07T09:59:06.344Z,15.30
2022-12-07T10:01:34.705Z,16.30
2022-12-07T10:04:23.931Z,19.70
2022-12-07T10:06:50.961Z,16.90
2022-12-07T10:09:22.344Z,14.20
2022-12-07T10:14:58.767Z,17.80
2022-12-07T10:17:39.688Z,17.10
2022-12-07T10:20:16.501Z,18.80
2022-12-07T10:23:05.328Z,14.20
2022-12-07T10:25:34.700Z,11.80
2022-12-07T10:28:17.794Z,13.50
2022-12-07T10:30:53.463Z,15.50
2022-12-07T10:33:31.884Z,20.30
2022-12-07T10:35:59.780Z,20.00
2022-12-07T10:38:27.790Z,18.50
2022-12-07T10:41:08.190Z,16.80
2022-12-07T10:43:35.305Z,16.50
2022-12-07T10:46:37.157Z,16.40
2022-12-07T10:49:27.634Z,27.30
2022-12-07T10:51:54.126Z,20.20
2022-12-07T10:54:34.371Z,28.10
2022-12-07T10:57:12.976Z,18.10
2022-12-07T10:59:42.302Z,17.20
2022-12-07T11:02:26.901Z,16.40
2022-12-07T11:05:11.645Z,18.40
2022-12-07T11:08:00.381Z,16.10
2022-12-07T11:10:58.359Z,16.90
2022-12-07T11:13:42.122Z,21.00
2022-12-07T11:16:22.438Z,22.20
2022-12-07T11:19:17.286Z,15.40
2022-12-07T11:21:55.111Z,13.70
2022-12-07T11:24:30.343Z,14.20
2022-12-07T11:27:02.963Z,18.60
2022-12-07T11:29:48.296Z,14.10
2022-12-07T11:32:23.818Z,19.60
2022-12-07T11:35:26.009Z,19.60
2022-12-07T11:38:00.174Z,23.20
2022-12-07T11:40:34.359Z,20.00
2022-12-07T11:43:08.269Z,17.00
2022-12-07T11:45:38.226Z,16.50
2022-12-07T11:48:15.590Z,19.20
2022-12-07T11:50:46.346Z,24.70
2022-12-07T11:53:26.474Z,19.50
2022-12-07T11:56:01.160Z,18.10
2022-12-07T11:59:02.876Z,27.90
2022-12-07T12:04:10.400Z,28.60
2022-12-07T12:06:41.868Z,28.10
2022-12-07T12:15:52.656Z,24.30
2022-12-07T12:18:37.400Z,17.00
2022-12-07T12:21:13.688Z,16.30
2022-12-07T12:23:46.398Z,16.90
2022-12-07T12:26:21.196Z,17.00
2022-12-07T12:29:20.986Z,17.20
2022-12-07T12:32:06.496Z,21.70
2022-12-07T12:34:44.104Z,23.10
2022-12-07T12:37:33.814Z,20.50
2022-12-07T12:40:29.947Z,23.60
2022-12-07T12:42:58.048Z,21.90
2022-12-07T12:45:24.504Z,26.30
2022-12-07T12:48:04.113Z,28.50
2022-12-07T12:50:37.983Z,25.40
2022-12-07T12:53:16.832Z,25.90
2022-12-07T12:55:43.287Z,25.80
2022-12-07T12:58:18.922Z,28.60
2022-12-07T13:01:09.682Z,22.60
2022-12-07T13:03:36.508Z,28.30
2022-12-07T13:06:25.057Z,25.60
2022-12-07T13:08:53.445Z,24.70
2022-12-07T13:11:29.397Z,23.70
2022-12-07T13:14:34.648Z,18.70
2022-12-07T13:17:01.191Z,21.00
2022-12-07T13:19:42.679Z,22.80
2022-12-07T13:22:31.033Z,19.00
2022-12-07T13:25:12.328Z,20.20
2022-12-07T13:27:42.115Z,42.70
2022-12-07T13:30:21.177Z,35.20
2022-12-07T13:32:59.658Z,32.20
2022-12-07T13:35:37.885Z,23.20
2022-12-07T13:38:23.380Z,19.80
2022-12-07T13:41:04.400Z,23.80
2022-12-07T13:43:31.169Z,33.60
2022-12-07T13:46:00.699Z,71.70
2022-12-07T13:48:37.440Z,17.70
2022-12-07T13:51:05.173Z,22.00
2022-12-07T13:53:31.903Z,22.90
2022-12-07T13:56:00.484Z,23.60
2022-12-07T13:58:31.117Z,22.90
2022-12-07T14:00:58.678Z,21.00
2022-12-07T14:03:31.747Z,20.20
2022-12-07T14:06:06.002Z,23.60
2022-12-07T14:08:32.554Z,19.00
2022-12-07T14:11:00.106Z,18.90
2022-12-07T14:13:33.776Z,19.20
2022-12-07T14:16:01.943Z,16.80
2022-12-07T14:18:31.433Z,16.20
2022-12-07T14:21:17.955Z,15.90
2022-12-07T14:23:45.172Z,13.30
2022-12-07T14:26:14.374Z,11.70
2022-12-07T14:28:43.000Z,10.20
2022-12-07T14:31:24.992Z,9.00
2022-12-07T14:34:00.513Z,10.20
2022-12-07T14:36:27.200Z,9.50
2022-12-07T14:38:53.579Z,13.00
2022-12-07T14:41:23.356Z,12.10
2022-12-07T14:44:15.053Z,10.50
2022-12-07T14:46:36.748Z,6.40
2022-12-07T14:54:36.242Z,6.90
2022-12-07T14:57:04.405Z,7.80
2022-12-07T14:59:30.869Z,11.30
2022-12-07T15:01:57.374Z,11.00
2022-12-07T15:04:23.976Z,7.30
2022-12-07T15:07:02.207Z,7.80
2022-12-07T15:09:29.021Z,9.20
2022-12-07T15:11:55.623Z,12.10
2022-12-07T15:14:22.269Z,9.20
2022-12-07T15:17:09.014Z,10.10
2022-12-07T15:19:35.048Z,8.50
2022-12-07T15:22:01.454Z,10.70
2022-12-07T15:24:27.993Z,8.00
2022-12-07T15:26:54.713Z,15.40
2022-12-07T15:29:23.449Z,14.30
2022-12-07T15:31:57.423Z,10.80
2022-12-07T15:34:26.551Z,8.50
2022-12-07T15:36:52.999Z,10.50
2022-12-07T15:39:19.510Z,9.10
2022-12-07T15:41:46.058Z,9.40
2022-12-07T15:44:14.225Z,11.80
2022-12-07T15:46:42.025Z,13.20
2022-12-07T15:49:15.302Z,13.80
2022-12-07T15:51:43.181Z,14.20
2022-12-07T15:54:29.071Z,17.20
2022-12-07T15:56:56.151Z,18.00
2022-12-07T15:59:23.171Z,16.80
2022-12-07T16:01:49.786Z,15.80
2022-12-07T16:04:16.527Z,15.50
2022-12-07T16:06:42.941Z,15.80
2022-12-07T16:09:09.421Z,20.80
2022-12-07T16:11:35.842Z,35.90
2022-12-07T16:14:02.298Z,25.30
2022-12-07T16:16:29.126Z,22.00
2022-12-07T16:18:56.023Z,26.00
2022-12-07T16:21:25.396Z,28.60
2022-12-07T16:23:52.970Z,19.70
2022-12-07T16:26:22.315Z,19.20
2022-12-07T16:28:53.521Z,15.40
2022-12-07T16:31:25.983Z,14.60
2022-12-07T16:33:57.262Z,13.30
2022-12-07T16:36:55.216Z,14.40
2022-12-07T16:39:11.328Z,15.50
2022-12-07T16:41:37.765Z,20.20
2022-12-07T16:44:06.902Z,80.70
2022-12-07T16:46:34.996Z,65.80
2022-12-07T16:49:01.584Z,45.90
2022-12-07T16:51:29.156Z,50.60
2022-12-07T16:53:55.624Z,45.40
2022-12-07T16:56:22.228Z,44.90
2022-12-07T16:58:49.025Z,37.90
2022-12-07T17:01:20.942Z,48.00
2022-12-07T17:03:47.862Z,48.40
2022-12-07T17:06:20.264Z,50.00
2022-12-07T17:08:47.626Z,55.40
2022-12-07T17:11:26.247Z,45.40
2022-12-07T17:13:52.756Z,49.20
2022-12-07T17:16:19.383Z,45.60
2022-12-07T17:18:46.425Z,42.50
2022-12-07T17:21:12.835Z,70.80
2022-12-07T17:23:39.356Z,67.30
2022-12-07T17:26:17.020Z,59.90
2022-12-07T17:28:44.090Z,63.90
2022-12-07T17:31:14.258Z,58.30
2022-12-07T17:33:40.900Z,55.50
2022-12-07T17:36:12.143Z,56.60
2022-12-07T17:38:38.779Z,47.50
2022-12-07T17:41:25.002Z,41.20
2022-12-07T17:43:51.434Z,55.20
2022-12-07T17:46:18.008Z,36.90
2022-12-07T17:48:44.503Z,31.20
2022-12-07T17:51:11.034Z,28.20
2022-12-07T17:53:37.575Z,25.20
2022-12-07T17:56:27.530Z,26.30
2022-12-07T17:58:50.624Z,22.60
2022-12-07T18:01:21.893Z,23.20
2022-12-07T18:03:50.358Z,22.80
2022-12-07T18:06:16.806Z,25.70
2022-12-07T18:08:43.641Z,27.20
2022-12-07T18:11:10.293Z,21.90
2022-12-07T18:13:36.927Z,25.00
2022-12-07T18:16:05.243Z,24.20
2022-12-07T18:18:31.951Z,20.70
2022-12-07T18:20:58.382Z,16.40
2022-12-07T18:23:24.826Z,17.80
2022-12-07T18:25:51.558Z,17.80
2022-12-07T18:28:18.043Z,16.90
2022-12-07T18:31:13.561Z,17.90
2022-12-07T18:33:30.937Z,20.10
2022-12-07T18:35:59.992Z,21.20
2022-12-07T18:38:28.205Z,18.80
2022-12-07T18:40:55.162Z,18.30
2022-12-07T18:43:23.774Z,21.40
2022-12-07T18:45:55.983Z,22.70
2022-12-07T18:48:23.588Z,20.80
2022-12-07T18:51:04.593Z,19.60
2022-12-07T18:53:32.255Z,20.80
2022-12-07T18:56:17.741Z,18.80
2022-12-07T18:58:48.982Z,19.60
2022-12-07T19:01:15.437Z,22.20
2022-12-07T19:03:42.072Z,20.50
2022-12-07T19:06:08.711Z,20.10
2022-12-07T19:08:35.125Z,19.20
2022-12-07T19:11:01.572Z,19.00
2022-12-07T19:13:28.038Z,23.60
2022-12-07T19:15:54.574Z,21.60
2022-12-07T19:18:21.003Z,19.80
2022-12-07T19:20:47.395Z,17.50
2022-12-07T19:23:13.832Z,17.80
2022-12-07T19:25:40.725Z,17.30
2022-12-07T19:28:07.159Z,19.00
2022-12-07T19:30:33.527Z,22.40
2022-12-07T19:33:00.038Z,26.20
2022-12-07T19:35:26.438Z,42.00
2022-12-07T19:37:52.846Z,56.40
2022-12-07T19:40:19.651Z,70.40
2022-12-07T19:42:46.188Z,90.80
2022-12-07T19:45:12.738Z,101.30
2022-12-07T19:47:39.369Z,86.50
2022-12-07T19:50:06.507Z,83.80
2022-12-07T19:52:36.591Z,76.70
2022-12-07T19:55:04.178Z,33.20
2022-12-07T19:57:30.893Z,61.80
2022-12-07T19:59:57.386Z,65.00
2022-12-07T20:02:23.881Z,70.80
2022-12-07T20:04:50.357Z,57.50
2022-12-07T20:07:16.908Z,86.80
2022-12-07T20:09:43.450Z,76.30
2022-12-07T20:12:10.890Z,61.50
2022-12-07T20:14:37.655Z,57.70
2022-12-07T20:17:04.554Z,58.50
2022-12-07T20:19:31.447Z,61.20
2022-12-07T20:21:57.841Z,64.30
2022-12-07T20:24:25.872Z,78.80
2022-12-07T20:26:53.854Z,87.20
2022-12-07T20:29:22.935Z,83.60
2022-12-07T20:31:50.599Z,97.20
2022-12-07T20:34:18.059Z,96.60
2022-12-07T20:36:45.297Z,84.50
2022-12-07T20:39:12.704Z,80.10
2022-12-07T20:41:40.160Z,77.70
2022-12-07T20:44:06.798Z,80.30
2022-12-07T20:46:33.316Z,77.20
2022-12-07T20:49:01.100Z,72.20
2022-12-07T20:51:28.984Z,76.50
2022-12-07T20:53:56.457Z,72.50
2022-12-07T20:56:26.994Z,68.90
2022-12-07T20:58:54.840Z,64.30
2022-12-07T21:01:21.971Z,60.80
2022-12-07T21:03:48.942Z,61.30
2022-12-07T21:06:17.535Z,70.50
2022-12-07T21:08:49.395Z,66.60
2022-12-07T21:11:17.994Z,52.00
2022-12-07T21:13:44.952Z,54.90
2022-12-07T21:16:32.066Z,48.70
2022-12-07T21:19:00.929Z,63.40
2022-12-07T21:21:27.397Z,88.90
2022-12-07T21:24:01.469Z,77.80
2022-12-07T21:26:29.288Z,47.00
2022-12-07T21:28:57.202Z,59.70
2022-12-07T21:31:24.418Z,58.60
2022-12-07T21:33:51.142Z,63.60
2022-12-07T21:36:23.613Z,67.70
2022-12-07T21:38:50.573Z,70.90
2022-12-07T21:41:24.209Z,64.20
2022-12-07T21:43:51.362Z,87.30
2022-12-07T21:46:19.353Z,60.00
2022-12-07T21:48:54.190Z,66.50
2022-12-07T21:51:22.355Z,63.50
2022-12-07T21:53:50.012Z,60.40
2022-12-07T21:56:19.457Z,62.10
2022-12-07T21:58:46.161Z,68.40
2022-12-07T22:01:18.180Z,50.60
2022-12-07T22:03:46.042Z,49.90
2022-12-07T22:06:14.682Z,55.10
2022-12-07T22:08:42.123Z,52.00
2022-12-07T22:11:09.124Z,52.90
2022-12-07T22:13:37.800Z,54.70
2022-12-07T22:16:04.893Z,56.50
2022-12-07T22:18:31.490Z,71.10
2022-12-07T22:21:00.290Z,77.70
2022-12-07T22:23:26.723Z,66.10
2022-12-07T22:25:53.164Z,64.40
2022-12-07T22:28:19.544Z,47.00
2022-12-07T22:30:45.928Z,36.60
2022-12-07T22:33:12.330Z,31.00
2022-12-07T22:35:38.826Z,29.50
2022-12-07T22:38:08.813Z,24.10
2022-12-07T22:40:38.018Z,22.60
2022-12-07T22:43:04.416Z,13.70
2022-12-07T22:45:30.932Z,12.20
2022-12-07T22:47:57.472Z,10.40
2022-12-07T22:50:23.856Z,10.10
2022-12-07T22:52:53.960Z,11.10
2022-12-07T22:55:20.480Z,9.90
2022-12-07T22:57:47.025Z,8.60
2022-12-07T23:00:14.370Z,9.70
2022-12-07T23:02:40.997Z,11.10
2022-12-07T23:05:08.512Z,7.30
2022-12-07T23:07:35.187Z,8.00
2022-12-07T23:10:01.990Z,6.00
2022-12-07T23:12:28.385Z,5.80
2022-12-07T23:14:54.865Z,6.90
2022-12-07T23:17:21.314Z,5.80
2022-12-07T23:19:51.354Z,6.30
2022-12-07T23:22:22.065Z,4.60
2022-12-07T23:24:48.495Z,5.50
2022-12-07T23:27:15.047Z,6.10
2022-12-07T23:29:41.539Z,6.00
2022-12-07T23:32:08.082Z,5.40
2022-12-07T23:34:34.563Z,5.80
2022-12-07T23:37:01.004Z,6.40
2022-12-07T23:39:27.405Z,5.90
2022-12-07T23:41:53.934Z,5.80
2022-12-07T23:44:20.416Z,5.80
2022-12-07T23:46:51.165Z,5.70
2022-12-07T23:49:17.794Z,5.40
2022-12-07T23:51:44.439Z,5.80
2022-12-07T23:54:12.826Z,5.50
2022-12-07T23:56:39.364Z,7.20
2022-12-07T23:59:06.415Z,8.60
